sensor_id;sensor_type;location;lat;lon;timestamp;temperature;humidity
4637;DHT22;2331;48.806;9.140;2023-04-26T00:00:18;10.00;1.00
4637;DHT22;2331;48.806;9.140;2023-04-26T00:02:45;10.10;1.00
4637;DHT22;2331;48.806;9.140;2023-04-26T00:05:13;10.00;1.00
4637;DHT22;2331;48.806;9.140;2023-04-26T00:07:41;10.00;1.00
4637;DHT22;2331;48.806;9.140;2023-04-26T00:10:10;10.00;1.00
4637;DHT22;2331;48.806;9.140;2023-04-26T00:12:38;10.00;1.00
4637;DHT22;2331;48.806;9.140;2023-04-26T00:15:07;10.10;1.00
4637;DHT22;2331;48.806;9.140;2023-04-26T00:17:35;10.10;1.00
4637;DHT22;2331;48.806;9.140;2023-04-26T00:20:03;10.10;1.00
4637;DHT22;2331;48.806;9.140;2023-04-26T00:22:32;10.10;1.00
4637;DHT22;2331;48.806;9.140;2023-04-26T00:25:00;10.10;1.00
4637;DHT22;2331;48.806;9.140;2023-04-26T00:27:28;10.10;1.00
4637;DHT22;2331;48.806;9.140;2023-04-26T00:29:55;10.00;1.00
4637;DHT22;2331;48.806;9.140;2023-04-26T00:32:22;10.00;1.00
4637;DHT22;2331;48.806;9.140;2023-04-26T00:34:49;10.00;1.00
4637;DHT22;2331;48.806;9.140;2023-04-26T00:37:16;10.00;1.00
4637;DHT22;2331;48.806;9.140;2023-04-26T00:39:43;10.00;1.00
4637;DHT22;2331;48.806;9.140;2023-04-26T00:42:10;9.90;1.00
4637;DHT22;2331;48.806;9.140;2023-04-26T00:44:38;9.90;1.00
4637;DHT22;2331;48.806;9.140;2023-04-26T00:47:05;9.80;1.00
4637;DHT22;2331;48.806;9.140;2023-04-26T00:49:32;9.70;1.00
4637;DHT22;2331;48.806;9.140;2023-04-26T00:51:59;9.70;1.00
4637;DHT22;2331;48.806;9.140;2023-04-26T00:54:26;9.70;1.00
4637;DHT22;2331;48.806;9.140;2023-04-26T00:56:54;9.70;1.00
4637;DHT22;2331;48.806;9.140;2023-04-26T00:59:21;9.70;1.00
4637;DHT22;2331;48.806;9.140;2023-04-26T01:01:50;9.70;1.00
4637;DHT22;2331;48.806;9.140;2023-04-26T01:04:17;9.60;1.00
4637;DHT22;2331;48.806;9.140;2023-04-26T01:06:44;9.70;1.00
4637;DHT22;2331;48.806;9.140;2023-04-26T01:09:11;9.60;1.00
4637;DHT22;2331;48.806;9.140;2023-04-26T01:11:40;9.60;1.00
4637;DHT22;2331;48.806;9.140;2023-04-26T01:14:08;9.50;1.00
4637;DHT22;2331;48.806;9.140;2023-04-26T01:16:35;9.60;1.00
4637;DHT22;2331;48.806;9.140;2023-04-26T01:19:08;9.50;1.00
4637;DHT22;2331;48.806;9.140;2023-04-26T01:21:37;9.50;1.00
4637;DHT22;2331;48.806;9.140;2023-04-26T01:24:06;9.50;1.00
4637;DHT22;2331;48.806;9.140;2023-04-26T01:26:34;9.60;1.00
4637;DHT22;2331;48.806;9.140;2023-04-26T01:29:12;9.60;1.00
4637;DHT22;2331;48.806;9.140;2023-04-26T01:31:40;9.60;1.00
4637;DHT22;2331;48.806;9.140;2023-04-26T01:34:07;9.60;1.00
4637;DHT22;2331;48.806;9.140;2023-04-26T01:36:34;9.60;1.00
4637;DHT22;2331;48.806;9.140;2023-04-26T01:39:00;9.60;1.00
4637;DHT22;2331;48.806;9.140;2023-04-26T01:41:28;9.60;1.00
4637;DHT22;2331;48.806;9.140;2023-04-26T01:43:55;9.50;1.00
4637;DHT22;2331;48.806;9.140;2023-04-26T01:46:23;9.50;1.00
4637;DHT22;2331;48.806;9.140;2023-04-26T01:48:50;9.50;1.00
4637;DHT22;2331;48.806;9.140;2023-04-26T01:51:17;9.50;1.00
4637;DHT22;2331;48.806;9.140;2023-04-26T01:53:43;9.40;1.00
4637;DHT22;2331;48.806;9.140;2023-04-26T01:56:10;9.50;1.00
4637;DHT22;2331;48.806;9.140;2023-04-26T01:58:38;9.50;1.00
4637;DHT22;2331;48.806;9.140;2023-04-26T02:01:07;9.50;1.00
4637;DHT22;2331;48.806;9.140;2023-04-26T02:03:35;9.50;1.00
4637;DHT22;2331;48.806;9.140;2023-04-26T02:06:01;9.50;1.00
4637;DHT22;2331;48.806;9.140;2023-04-26T02:08:28;9.50;1.00
4637;DHT22;2331;48.806;9.140;2023-04-26T02:10:55;9.50;1.00
4637;DHT22;2331;48.806;9.140;2023-04-26T02:13:22;9.50;1.00
4637;DHT22;2331;48.806;9.140;2023-04-26T02:15:51;9.50;1.00
4637;DHT22;2331;48.806;9.140;2023-04-26T02:18:18;9.50;1.00
4637;DHT22;2331;48.806;9.140;2023-04-26T02:20:46;9.50;1.00
4637;DHT22;2331;48.806;9.140;2023-04-26T02:23:13;9.50;1.00
4637;DHT22;2331;48.806;9.140;2023-04-26T02:25:41;9.50;1.00
4637;DHT22;2331;48.806;9.140;2023-04-26T02:28:10;9.50;1.00
4637;DHT22;2331;48.806;9.140;2023-04-26T02:30:37;9.40;1.00
4637;DHT22;2331;48.806;9.140;2023-04-26T02:33:06;9.40;1.00
4637;DHT22;2331;48.806;9.140;2023-04-26T02:35:33;9.40;1.00
4637;DHT22;2331;48.806;9.140;2023-04-26T02:38:00;9.40;1.00
4637;DHT22;2331;48.806;9.140;2023-04-26T02:40:27;9.30;1.00
4637;DHT22;2331;48.806;9.140;2023-04-26T02:42:54;9.40;1.00
4637;DHT22;2331;48.806;9.140;2023-04-26T02:45:22;9.30;1.00
4637;DHT22;2331;48.806;9.140;2023-04-26T02:47:49;9.30;1.00
4637;DHT22;2331;48.806;9.140;2023-04-26T02:50:17;9.30;1.00
4637;DHT22;2331;48.806;9.140;2023-04-26T02:52:44;9.20;1.00
4637;DHT22;2331;48.806;9.140;2023-04-26T02:55:11;9.20;1.00
4637;DHT22;2331;48.806;9.140;2023-04-26T02:57:38;9.20;1.00
4637;DHT22;2331;48.806;9.140;2023-04-26T03:00:06;9.20;1.00
4637;DHT22;2331;48.806;9.140;2023-04-26T03:02:33;9.20;1.00
4637;DHT22;2331;48.806;9.140;2023-04-26T03:05:00;9.20;1.00
4637;DHT22;2331;48.806;9.140;2023-04-26T03:07:29;9.10;1.00
4637;DHT22;2331;48.806;9.140;2023-04-26T03:09:58;9.10;1.00
4637;DHT22;2331;48.806;9.140;2023-04-26T03:12:26;9.10;1.00
4637;DHT22;2331;48.806;9.140;2023-04-26T03:14:54;9.10;1.00
4637;DHT22;2331;48.806;9.140;2023-04-26T03:17:22;9.10;1.00
4637;DHT22;2331;48.806;9.140;2023-04-26T03:19:48;9.10;1.00
4637;DHT22;2331;48.806;9.140;2023-04-26T03:22:15;9.10;1.00
4637;DHT22;2331;48.806;9.140;2023-04-26T03:24:44;9.00;1.00
4637;DHT22;2331;48.806;9.140;2023-04-26T03:27:12;9.00;1.00
4637;DHT22;2331;48.806;9.140;2023-04-26T03:29:39;9.10;1.00
4637;DHT22;2331;48.806;9.140;2023-04-26T03:32:06;9.00;1.00
4637;DHT22;2331;48.806;9.140;2023-04-26T03:34:33;8.90;1.00
4637;DHT22;2331;48.806;9.140;2023-04-26T03:37:01;9.00;1.00
4637;DHT22;2331;48.806;9.140;2023-04-26T03:39:28;8.90;1.00
4637;DHT22;2331;48.806;9.140;2023-04-26T03:41:56;9.00;1.00
4637;DHT22;2331;48.806;9.140;2023-04-26T03:44:23;8.90;1.00
4637;DHT22;2331;48.806;9.140;2023-04-26T03:46:50;9.00;1.00
4637;DHT22;2331;48.806;9.140;2023-04-26T03:49:17;9.00;1.00
4637;DHT22;2331;48.806;9.140;2023-04-26T03:51:43;8.90;1.00
4637;DHT22;2331;48.806;9.140;2023-04-26T03:54:10;8.90;1.00
4637;DHT22;2331;48.806;9.140;2023-04-26T03:56:37;8.80;1.00
4637;DHT22;2331;48.806;9.140;2023-04-26T03:59:06;8.80;1.00
4637;DHT22;2331;48.806;9.140;2023-04-26T04:01:33;8.70;1.00
4637;DHT22;2331;48.806;9.140;2023-04-26T04:04:01;8.70;1.00
4637;DHT22;2331;48.806;9.140;2023-04-26T04:06:27;8.70;1.00
4637;DHT22;2331;48.806;9.140;2023-04-26T04:08:54;8.70;1.00
4637;DHT22;2331;48.806;9.140;2023-04-26T04:11:21;8.70;1.00
4637;DHT22;2331;48.806;9.140;2023-04-26T04:13:48;8.60;1.00
4637;DHT22;2331;48.806;9.140;2023-04-26T04:16:16;8.60;1.00
4637;DHT22;2331;48.806;9.140;2023-04-26T04:18:43;8.60;1.00
4637;DHT22;2331;48.806;9.140;2023-04-26T04:21:10;8.60;1.00
4637;DHT22;2331;48.806;9.140;2023-04-26T04:23:37;8.60;1.00
4637;DHT22;2331;48.806;9.140;2023-04-26T04:26:04;8.50;1.00
4637;DHT22;2331;48.806;9.140;2023-04-26T04:28:31;8.50;1.00
4637;DHT22;2331;48.806;9.140;2023-04-26T04:30:58;8.50;1.00
4637;DHT22;2331;48.806;9.140;2023-04-26T04:33:27;8.50;1.00
4637;DHT22;2331;48.806;9.140;2023-04-26T04:35:54;8.40;1.00
4637;DHT22;2331;48.806;9.140;2023-04-26T04:38:20;8.40;1.00
4637;DHT22;2331;48.806;9.140;2023-04-26T04:40:47;8.40;1.00
4637;DHT22;2331;48.806;9.140;2023-04-26T04:43:15;8.30;1.00
4637;DHT22;2331;48.806;9.140;2023-04-26T04:45:42;8.30;1.00
4637;DHT22;2331;48.806;9.140;2023-04-26T04:48:09;8.30;1.00
4637;DHT22;2331;48.806;9.140;2023-04-26T04:50:37;8.40;1.00
4637;DHT22;2331;48.806;9.140;2023-04-26T04:53:04;8.30;1.00
4637;DHT22;2331;48.806;9.140;2023-04-26T04:55:31;8.30;1.00
4637;DHT22;2331;48.806;9.140;2023-04-26T04:57:58;8.30;1.00
4637;DHT22;2331;48.806;9.140;2023-04-26T05:00:26;8.30;1.00
4637;DHT22;2331;48.806;9.140;2023-04-26T05:02:53;8.20;1.00
4637;DHT22;2331;48.806;9.140;2023-04-26T05:05:19;8.30;1.00
4637;DHT22;2331;48.806;9.140;2023-04-26T05:07:48;8.30;1.00
4637;DHT22;2331;48.806;9.140;2023-04-26T05:10:15;8.20;1.00
4637;DHT22;2331;48.806;9.140;2023-04-26T05:12:42;8.20;1.00
4637;DHT22;2331;48.806;9.140;2023-04-26T05:15:09;8.30;1.00
4637;DHT22;2331;48.806;9.140;2023-04-26T05:17:35;8.30;1.00
4637;DHT22;2331;48.806;9.140;2023-04-26T05:20:03;8.30;1.00
4637;DHT22;2331;48.806;9.140;2023-04-26T05:22:32;8.30;1.00
4637;DHT22;2331;48.806;9.140;2023-04-26T05:25:02;8.40;1.00
4637;DHT22;2331;48.806;9.140;2023-04-26T05:27:30;8.30;1.00
4637;DHT22;2331;48.806;9.140;2023-04-26T05:29:59;8.40;1.00
4637;DHT22;2331;48.806;9.140;2023-04-26T05:32:25;8.40;1.00
4637;DHT22;2331;48.806;9.140;2023-04-26T05:34:52;8.40;1.00
4637;DHT22;2331;48.806;9.140;2023-04-26T05:37:19;8.40;1.00
4637;DHT22;2331;48.806;9.140;2023-04-26T05:39:46;8.50;1.00
4637;DHT22;2331;48.806;9.140;2023-04-26T05:42:14;8.50;1.00
4637;DHT22;2331;48.806;9.140;2023-04-26T05:44:41;8.50;1.00
4637;DHT22;2331;48.806;9.140;2023-04-26T05:47:08;8.50;1.00
4637;DHT22;2331;48.806;9.140;2023-04-26T05:49:35;8.50;1.00
4637;DHT22;2331;48.806;9.140;2023-04-26T05:52:02;8.50;1.00
4637;DHT22;2331;48.806;9.140;2023-04-26T05:54:28;8.60;1.00
4637;DHT22;2331;48.806;9.140;2023-04-26T05:56:55;8.60;1.00
4637;DHT22;2331;48.806;9.140;2023-04-26T05:59:23;8.60;1.00
4637;DHT22;2331;48.806;9.140;2023-04-26T06:01:50;8.60;1.00
4637;DHT22;2331;48.806;9.140;2023-04-26T06:04:17;8.60;1.00
4637;DHT22;2331;48.806;9.140;2023-04-26T06:06:43;8.60;1.00
4637;DHT22;2331;48.806;9.140;2023-04-26T06:09:10;8.60;1.00
4637;DHT22;2331;48.806;9.140;2023-04-26T06:11:37;8.70;1.00
4637;DHT22;2331;48.806;9.140;2023-04-26T06:14:04;8.70;1.00
4637;DHT22;2331;48.806;9.140;2023-04-26T06:16:32;8.70;1.00
4637;DHT22;2331;48.806;9.140;2023-04-26T06:18:59;8.80;1.00
4637;DHT22;2331;48.806;9.140;2023-04-26T06:21:26;8.80;1.00
4637;DHT22;2331;48.806;9.140;2023-04-26T06:23:52;8.80;1.00
4637;DHT22;2331;48.806;9.140;2023-04-26T06:26:19;8.90;1.00
4637;DHT22;2331;48.806;9.140;2023-04-26T06:28:46;8.90;1.00
4637;DHT22;2331;48.806;9.140;2023-04-26T06:31:13;9.00;1.00
4637;DHT22;2331;48.806;9.140;2023-04-26T06:33:41;8.90;1.00
4637;DHT22;2331;48.806;9.140;2023-04-26T06:36:10;9.00;1.00
4637;DHT22;2331;48.806;9.140;2023-04-26T06:38:37;9.10;1.00
4637;DHT22;2331;48.806;9.140;2023-04-26T06:41:04;9.10;1.00
4637;DHT22;2331;48.806;9.140;2023-04-26T06:43:31;9.10;1.00
4637;DHT22;2331;48.806;9.140;2023-04-26T06:45:58;9.20;1.00
4637;DHT22;2331;48.806;9.140;2023-04-26T06:48:25;9.20;1.00
4637;DHT22;2331;48.806;9.140;2023-04-26T06:50:53;9.20;1.00
4637;DHT22;2331;48.806;9.140;2023-04-26T06:53:20;9.20;1.00
4637;DHT22;2331;48.806;9.140;2023-04-26T06:55:47;9.20;1.00
4637;DHT22;2331;48.806;9.140;2023-04-26T06:58:14;9.20;1.00
4637;DHT22;2331;48.806;9.140;2023-04-26T07:00:40;9.20;1.00
4637;DHT22;2331;48.806;9.140;2023-04-26T07:03:07;9.30;1.00
4637;DHT22;2331;48.806;9.140;2023-04-26T07:05:34;9.30;1.00
4637;DHT22;2331;48.806;9.140;2023-04-26T07:08:02;9.30;1.00
4637;DHT22;2331;48.806;9.140;2023-04-26T07:10:29;9.40;1.00
4637;DHT22;2331;48.806;9.140;2023-04-26T07:13:03;9.40;1.00
4637;DHT22;2331;48.806;9.140;2023-04-26T07:15:30;9.50;1.00
4637;DHT22;2331;48.806;9.140;2023-04-26T07:17:57;9.60;1.00
4637;DHT22;2331;48.806;9.140;2023-04-26T07:20:24;9.60;1.00
4637;DHT22;2331;48.806;9.140;2023-04-26T07:22:51;9.60;1.00
4637;DHT22;2331;48.806;9.140;2023-04-26T07:25:35;9.60;1.00
4637;DHT22;2331;48.806;9.140;2023-04-26T07:28:02;9.70;1.00
4637;DHT22;2331;48.806;9.140;2023-04-26T07:30:29;9.80;1.00
4637;DHT22;2331;48.806;9.140;2023-04-26T07:32:58;9.80;1.00
4637;DHT22;2331;48.806;9.140;2023-04-26T07:35:25;9.90;1.00
4637;DHT22;2331;48.806;9.140;2023-04-26T07:37:51;9.90;1.00
4637;DHT22;2331;48.806;9.140;2023-04-26T07:40:18;9.90;1.00
4637;DHT22;2331;48.806;9.140;2023-04-26T07:42:52;10.00;1.00
4637;DHT22;2331;48.806;9.140;2023-04-26T07:45:19;10.00;1.00
4637;DHT22;2331;48.806;9.140;2023-04-26T07:47:46;10.10;1.00
4637;DHT22;2331;48.806;9.140;2023-04-26T07:50:13;10.10;1.00
4637;DHT22;2331;48.806;9.140;2023-04-26T07:52:40;10.10;1.00
4637;DHT22;2331;48.806;9.140;2023-04-26T07:55:08;10.20;1.00
4637;DHT22;2331;48.806;9.140;2023-04-26T07:57:35;10.30;1.00
4637;DHT22;2331;48.806;9.140;2023-04-26T08:00:05;10.40;1.00
4637;DHT22;2331;48.806;9.140;2023-04-26T08:02:34;10.50;1.00
4637;DHT22;2331;48.806;9.140;2023-04-26T08:05:00;10.70;1.00
4637;DHT22;2331;48.806;9.140;2023-04-26T08:07:27;10.80;1.00
4637;DHT22;2331;48.806;9.140;2023-04-26T08:09:54;10.90;1.00
4637;DHT22;2331;48.806;9.140;2023-04-26T08:12:21;10.90;1.00
4637;DHT22;2331;48.806;9.140;2023-04-26T08:14:47;11.10;1.00
4637;DHT22;2331;48.806;9.140;2023-04-26T08:17:16;11.10;1.00
4637;DHT22;2331;48.806;9.140;2023-04-26T08:19:43;11.20;1.00
4637;DHT22;2331;48.806;9.140;2023-04-26T08:22:10;11.20;1.00
4637;DHT22;2331;48.806;9.140;2023-04-26T08:24:37;11.40;1.00
4637;DHT22;2331;48.806;9.140;2023-04-26T08:27:04;11.50;1.00
4637;DHT22;2331;48.806;9.140;2023-04-26T08:29:31;11.50;1.00
4637;DHT22;2331;48.806;9.140;2023-04-26T08:31:58;11.60;1.00
4637;DHT22;2331;48.806;9.140;2023-04-26T08:34:26;11.60;1.00
4637;DHT22;2331;48.806;9.140;2023-04-26T08:36:53;11.70;1.00
4637;DHT22;2331;48.806;9.140;2023-04-26T08:39:20;11.70;1.00
4637;DHT22;2331;48.806;9.140;2023-04-26T08:41:50;11.80;1.00
4637;DHT22;2331;48.806;9.140;2023-04-26T08:44:22;11.80;1.00
4637;DHT22;2331;48.806;9.140;2023-04-26T08:46:58;11.80;1.00
4637;DHT22;2331;48.806;9.140;2023-04-26T08:49:34;11.80;1.00
4637;DHT22;2331;48.806;9.140;2023-04-26T08:52:03;11.90;1.00
4637;DHT22;2331;48.806;9.140;2023-04-26T08:54:34;12.00;1.00
4637;DHT22;2331;48.806;9.140;2023-04-26T08:57:02;12.00;1.00
4637;DHT22;2331;48.806;9.140;2023-04-26T08:59:31;12.10;1.00
4637;DHT22;2331;48.806;9.140;2023-04-26T09:01:59;12.10;1.00
4637;DHT22;2331;48.806;9.140;2023-04-26T09:04:28;12.10;1.00
4637;DHT22;2331;48.806;9.140;2023-04-26T09:06:59;12.20;1.00
4637;DHT22;2331;48.806;9.140;2023-04-26T09:09:27;12.20;1.00
4637;DHT22;2331;48.806;9.140;2023-04-26T09:11:55;12.10;1.00
4637;DHT22;2331;48.806;9.140;2023-04-26T09:14:23;12.10;1.00
4637;DHT22;2331;48.806;9.140;2023-04-26T09:16:50;12.20;1.00
4637;DHT22;2331;48.806;9.140;2023-04-26T09:19:17;12.20;1.00
4637;DHT22;2331;48.806;9.140;2023-04-26T09:22:01;12.20;1.00
4637;DHT22;2331;48.806;9.140;2023-04-26T09:24:45;12.20;1.00
4637;DHT22;2331;48.806;9.140;2023-04-26T09:27:13;12.20;1.00
4637;DHT22;2331;48.806;9.140;2023-04-26T09:29:40;12.30;1.00
4637;DHT22;2331;48.806;9.140;2023-04-26T09:32:06;12.40;1.00
4637;DHT22;2331;48.806;9.140;2023-04-26T09:34:43;12.40;1.00
4637;DHT22;2331;48.806;9.140;2023-04-26T09:37:12;12.50;1.00
4637;DHT22;2331;48.806;9.140;2023-04-26T09:39:40;12.50;1.00
4637;DHT22;2331;48.806;9.140;2023-04-26T09:42:07;12.50;1.00
4637;DHT22;2331;48.806;9.140;2023-04-26T09:44:36;12.40;1.00
4637;DHT22;2331;48.806;9.140;2023-04-26T09:47:05;12.50;1.00
4637;DHT22;2331;48.806;9.140;2023-04-26T09:49:43;12.50;1.00
4637;DHT22;2331;48.806;9.140;2023-04-26T09:52:14;12.50;1.00
4637;DHT22;2331;48.806;9.140;2023-04-26T09:54:43;12.40;1.00
4637;DHT22;2331;48.806;9.140;2023-04-26T09:57:10;12.40;1.00
4637;DHT22;2331;48.806;9.140;2023-04-26T09:59:45;12.50;1.00
4637;DHT22;2331;48.806;9.140;2023-04-26T10:02:18;12.60;1.00
4637;DHT22;2331;48.806;9.140;2023-04-26T10:04:48;12.60;1.00
4637;DHT22;2331;48.806;9.140;2023-04-26T10:07:17;12.80;1.00
4637;DHT22;2331;48.806;9.140;2023-04-26T10:09:45;12.80;1.00
4637;DHT22;2331;48.806;9.140;2023-04-26T10:12:14;12.90;1.00
4637;DHT22;2331;48.806;9.140;2023-04-26T10:14:42;12.90;1.00
4637;DHT22;2331;48.806;9.140;2023-04-26T10:17:10;12.90;1.00
4637;DHT22;2331;48.806;9.140;2023-04-26T10:19:40;13.00;1.00
4637;DHT22;2331;48.806;9.140;2023-04-26T10:22:11;13.10;1.00
4637;DHT22;2331;48.806;9.140;2023-04-26T10:24:42;13.10;1.00
4637;DHT22;2331;48.806;9.140;2023-04-26T10:27:09;13.30;1.00
4637;DHT22;2331;48.806;9.140;2023-04-26T10:30:04;13.40;1.00
4637;DHT22;2331;48.806;9.140;2023-04-26T10:32:32;13.50;1.00
4637;DHT22;2331;48.806;9.140;2023-04-26T10:35:19;13.70;1.00
4637;DHT22;2331;48.806;9.140;2023-04-26T10:38:08;13.80;1.00
4637;DHT22;2331;48.806;9.140;2023-04-26T10:40:38;13.80;1.00
4637;DHT22;2331;48.806;9.140;2023-04-26T10:43:26;13.90;1.00
4637;DHT22;2331;48.806;9.140;2023-04-26T10:45:53;13.90;1.00
4637;DHT22;2331;48.806;9.140;2023-04-26T10:48:23;13.90;1.00
4637;DHT22;2331;48.806;9.140;2023-04-26T10:51:09;14.00;1.00
4637;DHT22;2331;48.806;9.140;2023-04-26T10:53:59;13.90;1.00
4637;DHT22;2331;48.806;9.140;2023-04-26T10:56:52;13.90;1.00
4637;DHT22;2331;48.806;9.140;2023-04-26T10:59:20;14.00;1.00
4637;DHT22;2331;48.806;9.140;2023-04-26T11:01:47;14.00;1.00
4637;DHT22;2331;48.806;9.140;2023-04-26T11:04:14;14.10;1.00
4637;DHT22;2331;48.806;9.140;2023-04-26T11:06:49;14.10;1.00
4637;DHT22;2331;48.806;9.140;2023-04-26T11:09:36;14.20;1.00
4637;DHT22;2331;48.806;9.140;2023-04-26T11:12:09;14.20;1.00
4637;DHT22;2331;48.806;9.140;2023-04-26T11:14:36;14.20;1.00
4637;DHT22;2331;48.806;9.140;2023-04-26T11:17:03;14.30;1.00
4637;DHT22;2331;48.806;9.140;2023-04-26T11:19:30;14.30;1.00
4637;DHT22;2331;48.806;9.140;2023-04-26T11:21:58;14.30;1.00
4637;DHT22;2331;48.806;9.140;2023-04-26T11:24:25;14.40;1.00
4637;DHT22;2331;48.806;9.140;2023-04-26T11:26:52;14.30;1.00
4637;DHT22;2331;48.806;9.140;2023-04-26T11:29:20;14.40;1.00
4637;DHT22;2331;48.806;9.140;2023-04-26T11:31:51;14.50;1.00
4637;DHT22;2331;48.806;9.140;2023-04-26T11:34:20;14.60;1.00
4637;DHT22;2331;48.806;9.140;2023-04-26T11:36:50;14.50;1.00
4637;DHT22;2331;48.806;9.140;2023-04-26T11:39:19;14.50;1.00
4637;DHT22;2331;48.806;9.140;2023-04-26T11:41:47;14.50;1.00
4637;DHT22;2331;48.806;9.140;2023-04-26T11:44:17;14.50;1.00
4637;DHT22;2331;48.806;9.140;2023-04-26T11:46:46;14.50;1.00
4637;DHT22;2331;48.806;9.140;2023-04-26T11:49:14;14.60;1.00
4637;DHT22;2331;48.806;9.140;2023-04-26T11:51:42;14.70;1.00
4637;DHT22;2331;48.806;9.140;2023-04-26T11:54:09;14.60;1.00
4637;DHT22;2331;48.806;9.140;2023-04-26T11:56:35;14.70;1.00
4637;DHT22;2331;48.806;9.140;2023-04-26T11:59:04;14.60;1.00
4637;DHT22;2331;48.806;9.140;2023-04-26T12:01:30;14.60;1.00
4637;DHT22;2331;48.806;9.140;2023-04-26T12:03:59;14.70;1.00
4637;DHT22;2331;48.806;9.140;2023-04-26T12:06:29;14.70;1.00
4637;DHT22;2331;48.806;9.140;2023-04-26T12:08:57;14.70;1.00
4637;DHT22;2331;48.806;9.140;2023-04-26T12:11:24;14.70;1.00
4637;DHT22;2331;48.806;9.140;2023-04-26T12:13:51;14.60;1.00
4637;DHT22;2331;48.806;9.140;2023-04-26T12:16:18;14.60;1.00
4637;DHT22;2331;48.806;9.140;2023-04-26T12:18:49;14.70;1.00
4637;DHT22;2331;48.806;9.140;2023-04-26T12:21:18;14.70;1.00
4637;DHT22;2331;48.806;9.140;2023-04-26T12:23:46;14.80;1.00
4637;DHT22;2331;48.806;9.140;2023-04-26T12:26:14;14.90;1.00
4637;DHT22;2331;48.806;9.140;2023-04-26T12:28:41;15.00;1.00
4637;DHT22;2331;48.806;9.140;2023-04-26T12:31:08;15.10;1.00
4637;DHT22;2331;48.806;9.140;2023-04-26T12:33:35;15.00;1.00
4637;DHT22;2331;48.806;9.140;2023-04-26T12:36:06;15.10;1.00
4637;DHT22;2331;48.806;9.140;2023-04-26T12:38:35;15.10;1.00
4637;DHT22;2331;48.806;9.140;2023-04-26T12:41:02;15.20;1.00
4637;DHT22;2331;48.806;9.140;2023-04-26T12:43:28;15.30;1.00
4637;DHT22;2331;48.806;9.140;2023-04-26T12:45:58;15.30;1.00
4637;DHT22;2331;48.806;9.140;2023-04-26T12:48:25;15.30;1.00
4637;DHT22;2331;48.806;9.140;2023-04-26T12:50:53;15.40;1.00
4637;DHT22;2331;48.806;9.140;2023-04-26T12:53:19;15.50;1.00
4637;DHT22;2331;48.806;9.140;2023-04-26T12:55:47;15.60;1.00
4637;DHT22;2331;48.806;9.140;2023-04-26T12:58:14;15.60;1.00
4637;DHT22;2331;48.806;9.140;2023-04-26T13:00:41;15.60;1.00
4637;DHT22;2331;48.806;9.140;2023-04-26T13:03:07;15.60;1.00
4637;DHT22;2331;48.806;9.140;2023-04-26T13:05:35;15.60;1.00
4637;DHT22;2331;48.806;9.140;2023-04-26T13:08:02;15.70;1.00
4637;DHT22;2331;48.806;9.140;2023-04-26T13:10:29;15.60;1.00
4637;DHT22;2331;48.806;9.140;2023-04-26T13:12:58;15.70;1.00
4637;DHT22;2331;48.806;9.140;2023-04-26T13:15:26;15.70;1.00
4637;DHT22;2331;48.806;9.140;2023-04-26T13:17:54;15.80;1.00
4637;DHT22;2331;48.806;9.140;2023-04-26T13:20:21;15.70;1.00
4637;DHT22;2331;48.806;9.140;2023-04-26T13:22:48;15.80;1.00
4637;DHT22;2331;48.806;9.140;2023-04-26T13:25:16;15.90;1.00
4637;DHT22;2331;48.806;9.140;2023-04-26T13:27:43;16.00;1.00
4637;DHT22;2331;48.806;9.140;2023-04-26T13:30:13;16.10;1.00
4637;DHT22;2331;48.806;9.140;2023-04-26T13:32:40;16.30;1.00
4637;DHT22;2331;48.806;9.140;2023-04-26T13:35:07;16.50;1.00
4637;DHT22;2331;48.806;9.140;2023-04-26T13:37:34;16.60;1.00
4637;DHT22;2331;48.806;9.140;2023-04-26T13:40:01;16.70;1.00
4637;DHT22;2331;48.806;9.140;2023-04-26T13:42:29;16.90;1.00
4637;DHT22;2331;48.806;9.140;2023-04-26T13:44:57;17.00;1.00
4637;DHT22;2331;48.806;9.140;2023-04-26T13:47:25;17.10;1.00
4637;DHT22;2331;48.806;9.140;2023-04-26T13:49:53;17.20;1.00
4637;DHT22;2331;48.806;9.140;2023-04-26T13:52:20;17.30;1.00
4637;DHT22;2331;48.806;9.140;2023-04-26T13:54:46;17.30;1.00
4637;DHT22;2331;48.806;9.140;2023-04-26T13:57:13;17.20;1.00
4637;DHT22;2331;48.806;9.140;2023-04-26T13:59:40;17.20;1.00
4637;DHT22;2331;48.806;9.140;2023-04-26T14:02:07;17.20;1.00
4637;DHT22;2331;48.806;9.140;2023-04-26T14:04:36;17.10;1.00
4637;DHT22;2331;48.806;9.140;2023-04-26T14:07:02;17.10;1.00
4637;DHT22;2331;48.806;9.140;2023-04-26T14:09:30;17.00;1.00
4637;DHT22;2331;48.806;9.140;2023-04-26T14:11:57;16.90;1.00
4637;DHT22;2331;48.806;9.140;2023-04-26T14:14:24;17.00;1.00
4637;DHT22;2331;48.806;9.140;2023-04-26T14:16:51;17.00;1.00
4637;DHT22;2331;48.806;9.140;2023-04-26T14:19:17;17.00;1.00
4637;DHT22;2331;48.806;9.140;2023-04-26T14:21:46;17.10;1.00
4637;DHT22;2331;48.806;9.140;2023-04-26T14:24:12;17.20;1.00
4637;DHT22;2331;48.806;9.140;2023-04-26T14:26:39;17.30;1.00
4637;DHT22;2331;48.806;9.140;2023-04-26T14:29:06;17.40;1.00
4637;DHT22;2331;48.806;9.140;2023-04-26T14:31:32;17.40;1.00
4637;DHT22;2331;48.806;9.140;2023-04-26T14:33:59;17.30;1.00
4637;DHT22;2331;48.806;9.140;2023-04-26T14:36:26;17.30;1.00
4637;DHT22;2331;48.806;9.140;2023-04-26T14:38:54;17.20;1.00
4637;DHT22;2331;48.806;9.140;2023-04-26T14:41:21;17.30;1.00
4637;DHT22;2331;48.806;9.140;2023-04-26T14:43:48;17.30;1.00
4637;DHT22;2331;48.806;9.140;2023-04-26T14:46:15;17.20;1.00
4637;DHT22;2331;48.806;9.140;2023-04-26T14:48:42;17.10;1.00
4637;DHT22;2331;48.806;9.140;2023-04-26T14:51:09;17.10;1.00
4637;DHT22;2331;48.806;9.140;2023-04-26T14:53:36;17.10;1.00
4637;DHT22;2331;48.806;9.140;2023-04-26T14:56:05;17.10;1.00
4637;DHT22;2331;48.806;9.140;2023-04-26T14:58:32;17.10;1.00
4637;DHT22;2331;48.806;9.140;2023-04-26T15:01:00;16.90;1.00
4637;DHT22;2331;48.806;9.140;2023-04-26T15:03:27;17.00;1.00
4637;DHT22;2331;48.806;9.140;2023-04-26T15:05:54;17.10;1.00
4637;DHT22;2331;48.806;9.140;2023-04-26T15:08:21;17.00;1.00
4637;DHT22;2331;48.806;9.140;2023-04-26T15:10:48;17.10;1.00
4637;DHT22;2331;48.806;9.140;2023-04-26T15:13:17;17.20;1.00
4637;DHT22;2331;48.806;9.140;2023-04-26T15:15:44;17.20;1.00
4637;DHT22;2331;48.806;9.140;2023-04-26T15:18:10;17.20;1.00
4637;DHT22;2331;48.806;9.140;2023-04-26T15:20:38;17.10;1.00
4637;DHT22;2331;48.806;9.140;2023-04-26T15:23:05;17.00;1.00
4637;DHT22;2331;48.806;9.140;2023-04-26T15:25:34;16.80;1.00
4637;DHT22;2331;48.806;9.140;2023-04-26T15:28:01;16.80;1.00
4637;DHT22;2331;48.806;9.140;2023-04-26T15:30:30;16.80;1.00
4637;DHT22;2331;48.806;9.140;2023-04-26T15:33:00;16.70;1.00
4637;DHT22;2331;48.806;9.140;2023-04-26T15:35:26;16.70;1.00
4637;DHT22;2331;48.806;9.140;2023-04-26T15:37:53;16.70;1.00
4637;DHT22;2331;48.806;9.140;2023-04-26T15:40:20;16.60;1.00
4637;DHT22;2331;48.806;9.140;2023-04-26T15:42:47;16.70;1.00
4637;DHT22;2331;48.806;9.140;2023-04-26T15:45:15;16.80;1.00
4637;DHT22;2331;48.806;9.140;2023-04-26T15:47:44;16.70;1.00
4637;DHT22;2331;48.806;9.140;2023-04-26T15:50:11;16.80;1.00
4637;DHT22;2331;48.806;9.140;2023-04-26T15:52:38;16.80;1.00
4637;DHT22;2331;48.806;9.140;2023-04-26T15:55:06;16.80;1.00
4637;DHT22;2331;48.806;9.140;2023-04-26T15:57:34;16.90;1.00
4637;DHT22;2331;48.806;9.140;2023-04-26T16:00:01;16.80;1.00
4637;DHT22;2331;48.806;9.140;2023-04-26T16:02:30;17.00;1.00
4637;DHT22;2331;48.806;9.140;2023-04-26T16:04:58;17.10;1.00
4637;DHT22;2331;48.806;9.140;2023-04-26T16:07:41;17.30;1.00
4637;DHT22;2331;48.806;9.140;2023-04-26T16:10:09;17.40;1.00
4637;DHT22;2331;48.806;9.140;2023-04-26T16:12:36;17.30;1.00
4637;DHT22;2331;48.806;9.140;2023-04-26T16:15:04;17.50;1.00
4637;DHT22;2331;48.806;9.140;2023-04-26T16:17:31;17.40;1.00
4637;DHT22;2331;48.806;9.140;2023-04-26T16:20:00;17.40;1.00
4637;DHT22;2331;48.806;9.140;2023-04-26T16:22:29;17.30;1.00
4637;DHT22;2331;48.806;9.140;2023-04-26T16:24:57;17.30;1.00
4637;DHT22;2331;48.806;9.140;2023-04-26T16:27:24;17.30;1.00
4637;DHT22;2331;48.806;9.140;2023-04-26T16:29:51;17.30;1.00